sensor_id;sensor_type;location;lat;lon;timestamp;pressure;altitude;pressure_sealevel;temperature;humidity
11314;BME280;5712;48.858;9.206;2023-03-13T00:00:24;97717.38;;;6.86;100.00
11314;BME280;5712;48.858;9.206;2023-03-13T00:02:51;97709.97;;;6.92;100.00
11314;BME280;5712;48.858;9.206;2023-03-13T00:05:19;97717.06;;;6.90;100.00
11314;BME280;5712;48.858;9.206;2023-03-13T00:07:45;97708.47;;;6.88;100.00
11314;BME280;5712;48.858;9.206;2023-03-13T00:10:12;97704.97;;;6.88;100.00
11314;BME280;5712;48.858;9.206;2023-03-13T00:12:38;97706.31;;;6.95;100.00
11314;BME280;5712;48.858;9.206;2023-03-13T00:15:05;97700.19;;;6.94;100.00
11314;BME280;5712;48.858;9.206;2023-03-13T00:17:32;97695.31;;;7.02;100.00
11314;BME280;5712;48.858;9.206;2023-03-13T00:19:58;97696.06;;;7.04;100.00
11314;BME280;5712;48.858;9.206;2023-03-13T00:22:27;97688.00;;;7.07;100.00
11314;BME280;5712;48.858;9.206;2023-03-13T00:24:53;97686.75;;;7.13;100.00
11314;BME280;5712;48.858;9.206;2023-03-13T00:27:19;97691.56;;;7.06;100.00
11314;BME280;5712;48.858;9.206;2023-03-13T00:29:46;97693.97;;;7.09;100.00
11314;BME280;5712;48.858;9.206;2023-03-13T00:32:13;97688.56;;;7.12;100.00
11314;BME280;5712;48.858;9.206;2023-03-13T00:34:42;97690.97;;;7.15;100.00
11314;BME280;5712;48.858;9.206;2023-03-13T00:37:08;97689.94;;;7.18;100.00
11314;BME280;5712;48.858;9.206;2023-03-13T00:39:36;97673.13;;;7.20;100.00
11314;BME280;5712;48.858;9.206;2023-03-13T00:42:03;97669.56;;;7.21;100.00
11314;BME280;5712;48.858;9.206;2023-03-13T00:44:29;97667.31;;;7.29;100.00
11314;BME280;5712;48.858;9.206;2023-03-13T00:46:56;97663.34;;;7.36;100.00
11314;BME280;5712;48.858;9.206;2023-03-13T00:49:22;97657.69;;;7.42;100.00
11314;BME280;5712;48.858;9.206;2023-03-13T00:51:49;97653.28;;;7.42;100.00
11314;BME280;5712;48.858;9.206;2023-03-13T00:54:15;97652.34;;;7.43;100.00
11314;BME280;5712;48.858;9.206;2023-03-13T00:56:43;97654.69;;;7.48;100.00
11314;BME280;5712;48.858;9.206;2023-03-13T00:59:10;97652.88;;;7.48;100.00
11314;BME280;5712;48.858;9.206;2023-03-13T01:01:36;97643.22;;;7.49;100.00
11314;BME280;5712;48.858;9.206;2023-03-13T01:04:05;97642.81;;;7.55;100.00
11314;BME280;5712;48.858;9.206;2023-03-13T01:06:34;97634.53;;;7.61;100.00
11314;BME280;5712;48.858;9.206;2023-03-13T01:09:02;97635.47;;;7.60;100.00
11314;BME280;5712;48.858;9.206;2023-03-13T01:11:31;97633.16;;;7.55;100.00
11314;BME280;5712;48.858;9.206;2023-03-13T01:14:03;97624.50;;;7.53;100.00
11314;BME280;5712;48.858;9.206;2023-03-13T01:16:32;97620.09;;;7.54;100.00
11314;BME280;5712;48.858;9.206;2023-03-13T01:19:00;97623.69;;;7.53;100.00
11314;BME280;5712;48.858;9.206;2023-03-13T01:21:27;97617.56;;;7.52;100.00
11314;BME280;5712;48.858;9.206;2023-03-13T01:23:54;97607.59;;;7.57;100.00
11314;BME280;5712;48.858;9.206;2023-03-13T01:26:21;97608.31;;;7.59;100.00
11314;BME280;5712;48.858;9.206;2023-03-13T01:28:48;97594.47;;;7.70;100.00
11314;BME280;5712;48.858;9.206;2023-03-13T01:31:18;97591.34;;;7.77;100.00
11314;BME280;5712;48.858;9.206;2023-03-13T01:33:46;97579.78;;;7.80;99.75
11314;BME280;5712;48.858;9.206;2023-03-13T01:36:13;97578.69;;;7.70;100.00
11314;BME280;5712;48.858;9.206;2023-03-13T01:38:41;97575.88;;;7.73;100.00
11314;BME280;5712;48.858;9.206;2023-03-13T01:41:10;97580.00;;;7.77;100.00
11314;BME280;5712;48.858;9.206;2023-03-13T01:43:37;97568.63;;;7.76;100.00
11314;BME280;5712;48.858;9.206;2023-03-13T01:46:10;97569.88;;;7.71;100.00
11314;BME280;5712;48.858;9.206;2023-03-13T01:48:44;97567.13;;;7.72;100.00
11314;BME280;5712;48.858;9.206;2023-03-13T01:51:14;97562.09;;;7.69;100.00
11314;BME280;5712;48.858;9.206;2023-03-13T01:53:43;97557.66;;;7.70;100.00
11314;BME280;5712;48.858;9.206;2023-03-13T01:56:17;97554.81;;;7.73;100.00
11314;BME280;5712;48.858;9.206;2023-03-13T01:58:46;97550.38;;;7.73;100.00
11314;BME280;5712;48.858;9.206;2023-03-13T02:01:13;97546.31;;;7.69;100.00
11314;BME280;5712;48.858;9.206;2023-03-13T02:03:42;97549.03;;;7.68;100.00
11314;BME280;5712;48.858;9.206;2023-03-13T02:06:09;97539.44;;;7.67;100.00
11314;BME280;5712;48.858;9.206;2023-03-13T02:08:39;97532.50;;;7.66;100.00
11314;BME280;5712;48.858;9.206;2023-03-13T02:11:13;97527.03;;;7.69;100.00
11314;BME280;5712;48.858;9.206;2023-03-13T02:13:42;97521.78;;;7.69;100.00
11314;BME280;5712;48.858;9.206;2023-03-13T02:16:10;97523.44;;;7.70;100.00
11314;BME280;5712;48.858;9.206;2023-03-13T02:18:36;97507.38;;;7.74;100.00
11314;BME280;5712;48.858;9.206;2023-03-13T02:21:10;97511.78;;;7.74;100.00
11314;BME280;5712;48.858;9.206;2023-03-13T02:23:44;97510.22;;;7.84;100.00
11314;BME280;5712;48.858;9.206;2023-03-13T02:26:16;97503.81;;;8.00;99.20
11314;BME280;5712;48.858;9.206;2023-03-13T02:28:42;97508.44;;;7.97;98.21
11314;BME280;5712;48.858;9.206;2023-03-13T02:31:09;97509.59;;;7.93;98.99
11314;BME280;5712;48.858;9.206;2023-03-13T02:33:38;97509.25;;;7.97;98.84
11314;BME280;5712;48.858;9.206;2023-03-13T02:36:06;97500.13;;;8.03;98.49
11314;BME280;5712;48.858;9.206;2023-03-13T02:38:43;97492.34;;;8.01;98.52
11314;BME280;5712;48.858;9.206;2023-03-13T02:41:12;97487.16;;;8.00;98.91
11314;BME280;5712;48.858;9.206;2023-03-13T02:43:40;97475.59;;;8.02;99.08
11314;BME280;5712;48.858;9.206;2023-03-13T02:46:09;97475.69;;;8.01;98.85
11314;BME280;5712;48.858;9.206;2023-03-13T02:48:38;97465.06;;;8.02;99.40
11314;BME280;5712;48.858;9.206;2023-03-13T02:51:11;97463.28;;;8.03;99.21
11314;BME280;5712;48.858;9.206;2023-03-13T02:53:40;97459.47;;;8.07;99.08
11314;BME280;5712;48.858;9.206;2023-03-13T02:56:07;97455.78;;;8.09;98.58
11314;BME280;5712;48.858;9.206;2023-03-13T02:58:41;97446.34;;;8.19;97.55
11314;BME280;5712;48.858;9.206;2023-03-13T03:01:09;97436.00;;;8.16;97.74
11314;BME280;5712;48.858;9.206;2023-03-13T03:03:35;97441.94;;;8.20;97.88
11314;BME280;5712;48.858;9.206;2023-03-13T03:06:03;97424.00;;;8.25;97.47
11314;BME280;5712;48.858;9.206;2023-03-13T03:08:30;97422.13;;;8.27;96.88
11314;BME280;5712;48.858;9.206;2023-03-13T03:10:57;97423.78;;;8.28;97.53
11314;BME280;5712;48.858;9.206;2023-03-13T03:13:24;97427.16;;;8.30;97.04
11314;BME280;5712;48.858;9.206;2023-03-13T03:15:52;97426.94;;;8.33;97.30
11314;BME280;5712;48.858;9.206;2023-03-13T03:18:18;97417.25;;;8.33;97.40
11314;BME280;5712;48.858;9.206;2023-03-13T03:20:45;97415.78;;;8.29;97.78
11314;BME280;5712;48.858;9.206;2023-03-13T03:23:11;97412.97;;;8.20;98.96
11314;BME280;5712;48.858;9.206;2023-03-13T03:25:38;97421.16;;;8.15;99.95
11314;BME280;5712;48.858;9.206;2023-03-13T03:28:04;97419.81;;;8.10;100.00
11314;BME280;5712;48.858;9.206;2023-03-13T03:30:31;97426.84;;;8.09;100.00
11314;BME280;5712;48.858;9.206;2023-03-13T03:33:01;97424.34;;;8.08;100.00
11314;BME280;5712;48.858;9.206;2023-03-13T03:35:28;97420.94;;;8.06;100.00
11314;BME280;5712;48.858;9.206;2023-03-13T03:37:54;97424.97;;;8.11;100.00
11314;BME280;5712;48.858;9.206;2023-03-13T03:40:20;97427.47;;;8.13;100.00
11314;BME280;5712;48.858;9.206;2023-03-13T03:42:47;97416.84;;;8.14;100.00
11314;BME280;5712;48.858;9.206;2023-03-13T03:45:13;97414.75;;;8.19;100.00
11314;BME280;5712;48.858;9.206;2023-03-13T03:47:40;97406.53;;;8.24;100.00
11314;BME280;5712;48.858;9.206;2023-03-13T03:50:09;97402.94;;;8.25;100.00
11314;BME280;5712;48.858;9.206;2023-03-13T03:52:36;97407.75;;;8.31;100.00
11314;BME280;5712;48.858;9.206;2023-03-13T03:55:03;97408.81;;;8.41;100.00
11314;BME280;5712;48.858;9.206;2023-03-13T03:57:30;97401.63;;;8.43;100.00
11314;BME280;5712;48.858;9.206;2023-03-13T03:59:56;97405.97;;;8.44;100.00
11314;BME280;5712;48.858;9.206;2023-03-13T04:02:23;97408.47;;;8.45;100.00
11314;BME280;5712;48.858;9.206;2023-03-13T04:04:49;97405.53;;;8.50;100.00
11314;BME280;5712;48.858;9.206;2023-03-13T04:07:17;97396.44;;;8.54;100.00
11314;BME280;5712;48.858;9.206;2023-03-13T04:09:44;97398.84;;;8.57;100.00
11314;BME280;5712;48.858;9.206;2023-03-13T04:12:10;97386.19;;;8.62;100.00
11314;BME280;5712;48.858;9.206;2023-03-13T04:14:37;97382.16;;;8.69;100.00
11314;BME280;5712;48.858;9.206;2023-03-13T04:17:03;97375.38;;;8.77;100.00
11314;BME280;5712;48.858;9.206;2023-03-13T04:19:30;97377.88;;;8.79;100.00
11314;BME280;5712;48.858;9.206;2023-03-13T04:21:56;97374.47;;;8.89;100.00
11314;BME280;5712;48.858;9.206;2023-03-13T04:24:24;97372.91;;;8.98;100.00
11314;BME280;5712;48.858;9.206;2023-03-13T04:26:50;97364.59;;;9.15;100.00
11314;BME280;5712;48.858;9.206;2023-03-13T04:29:17;97368.22;;;9.25;100.00
11314;BME280;5712;48.858;9.206;2023-03-13T04:31:43;97366.31;;;9.38;100.00
11314;BME280;5712;48.858;9.206;2023-03-13T04:34:10;97361.78;;;9.51;100.00
11314;BME280;5712;48.858;9.206;2023-03-13T04:36:36;97350.88;;;9.66;100.00
11314;BME280;5712;48.858;9.206;2023-03-13T04:39:03;97352.19;;;9.83;100.00
11314;BME280;5712;48.858;9.206;2023-03-13T04:41:31;97357.97;;;9.99;100.00
11314;BME280;5712;48.858;9.206;2023-03-13T04:43:57;97361.59;;;10.09;100.00
11314;BME280;5712;48.858;9.206;2023-03-13T04:46:24;97352.69;;;10.21;100.00
11314;BME280;5712;48.858;9.206;2023-03-13T04:48:50;97355.88;;;10.35;100.00
11314;BME280;5712;48.858;9.206;2023-03-13T04:51:16;97349.50;;;10.49;100.00
11314;BME280;5712;48.858;9.206;2023-03-13T04:53:43;97356.44;;;10.61;100.00
11314;BME280;5712;48.858;9.206;2023-03-13T04:56:10;97352.06;;;10.71;100.00
11314;BME280;5712;48.858;9.206;2023-03-13T04:58:38;97348.94;;;10.77;100.00
11314;BME280;5712;48.858;9.206;2023-03-13T05:01:04;97347.38;;;10.74;100.00
11314;BME280;5712;48.858;9.206;2023-03-13T05:03:30;97342.91;;;10.75;100.00
11314;BME280;5712;48.858;9.206;2023-03-13T05:05:57;97342.41;;;10.81;100.00
11314;BME280;5712;48.858;9.206;2023-03-13T05:08:23;97346.59;;;10.83;100.00
11314;BME280;5712;48.858;9.206;2023-03-13T05:10:50;97340.22;;;10.86;100.00
11314;BME280;5712;48.858;9.206;2023-03-13T05:13:16;97333.97;;;10.87;100.00
11314;BME280;5712;48.858;9.206;2023-03-13T05:15:44;97342.13;;;10.95;100.00
11314;BME280;5712;48.858;9.206;2023-03-13T05:18:10;97345.00;;;10.92;100.00
11314;BME280;5712;48.858;9.206;2023-03-13T05:20:37;97345.00;;;10.92;100.00
11314;BME280;5712;48.858;9.206;2023-03-13T05:23:03;97338.38;;;10.97;100.00
11314;BME280;5712;48.858;9.206;2023-03-13T05:25:30;97340.88;;;10.99;100.00
11314;BME280;5712;48.858;9.206;2023-03-13T05:27:56;97344.50;;;10.98;100.00
11314;BME280;5712;48.858;9.206;2023-03-13T05:30:23;97343.28;;;11.02;100.00
11314;BME280;5712;48.858;9.206;2023-03-13T05:32:51;97339.69;;;11.03;100.00
11314;BME280;5712;48.858;9.206;2023-03-13T05:35:17;97336.78;;;11.06;100.00
11314;BME280;5712;48.858;9.206;2023-03-13T05:37:44;97337.38;;;11.09;100.00
11314;BME280;5712;48.858;9.206;2023-03-13T05:40:11;97325.94;;;11.09;100.00
11314;BME280;5712;48.858;9.206;2023-03-13T05:42:38;97325.69;;;11.12;100.00
11314;BME280;5712;48.858;9.206;2023-03-13T05:45:06;97330.13;;;11.11;100.00
11314;BME280;5712;48.858;9.206;2023-03-13T05:47:33;97329.28;;;11.11;100.00
11314;BME280;5712;48.858;9.206;2023-03-13T05:50:01;97334.34;;;11.14;100.00
11314;BME280;5712;48.858;9.206;2023-03-13T05:52:28;97321.69;;;11.17;100.00
11314;BME280;5712;48.858;9.206;2023-03-13T05:54:54;97326.00;;;11.18;100.00
11314;BME280;5712;48.858;9.206;2023-03-13T05:57:21;97320.31;;;11.23;100.00
11314;BME280;5712;48.858;9.206;2023-03-13T05:59:47;97319.09;;;11.27;100.00
11314;BME280;5712;48.858;9.206;2023-03-13T06:02:14;97322.44;;;11.29;100.00
11314;BME280;5712;48.858;9.206;2023-03-13T06:04:40;97313.75;;;11.17;100.00
11314;BME280;5712;48.858;9.206;2023-03-13T06:07:08;97332.38;;;11.16;100.00
11314;BME280;5712;48.858;9.206;2023-03-13T06:09:35;97332.38;;;11.16;100.00
11314;BME280;5712;48.858;9.206;2023-03-13T06:12:01;97329.03;;;11.14;100.00
11314;BME280;5712;48.858;9.206;2023-03-13T06:14:28;97325.44;;;11.15;100.00
11314;BME280;5712;48.858;9.206;2023-03-13T06:16:54;97347.16;;;11.18;100.00
11314;BME280;5712;48.858;9.206;2023-03-13T06:19:21;97338.53;;;11.16;100.00
11314;BME280;5712;48.858;9.206;2023-03-13T06:21:48;97331.63;;;11.25;100.00
11314;BME280;5712;48.858;9.206;2023-03-13T06:24:17;97315.47;;;11.28;100.00
11314;BME280;5712;48.858;9.206;2023-03-13T06:26:43;97314.97;;;11.34;100.00
11314;BME280;5712;48.858;9.206;2023-03-13T06:29:10;97311.28;;;11.46;100.00
11314;BME280;5712;48.858;9.206;2023-03-13T06:31:36;97324.94;;;11.51;100.00
11314;BME280;5712;48.858;9.206;2023-03-13T06:34:03;97324.19;;;11.60;100.00
11314;BME280;5712;48.858;9.206;2023-03-13T06:36:29;97306.31;;;11.73;100.00
11314;BME280;5712;48.858;9.206;2023-03-13T06:38:56;97296.84;;;11.80;100.00
11314;BME280;5712;48.858;9.206;2023-03-13T06:41:24;97307.31;;;11.91;99.65
11314;BME280;5712;48.858;9.206;2023-03-13T06:43:51;97305.84;;;11.98;98.60
11314;BME280;5712;48.858;9.206;2023-03-13T06:46:20;97315.00;;;11.94;99.01
11314;BME280;5712;48.858;9.206;2023-03-13T06:48:47;97319.63;;;11.92;99.70
11314;BME280;5712;48.858;9.206;2023-03-13T06:51:16;97320.56;;;11.91;100.00
11314;BME280;5712;48.858;9.206;2023-03-13T06:53:43;97318.44;;;11.85;100.00
11314;BME280;5712;48.858;9.206;2023-03-13T06:56:10;97328.09;;;11.86;100.00
11314;BME280;5712;48.858;9.206;2023-03-13T06:58:38;97328.94;;;11.96;100.00
11314;BME280;5712;48.858;9.206;2023-03-13T07:01:06;97323.94;;;11.93;100.00
11314;BME280;5712;48.858;9.206;2023-03-13T07:03:33;97329.50;;;11.99;100.00
11314;BME280;5712;48.858;9.206;2023-03-13T07:06:00;97330.91;;;11.94;100.00
11314;BME280;5712;48.858;9.206;2023-03-13T07:08:27;97327.16;;;11.96;100.00
11314;BME280;5712;48.858;9.206;2023-03-13T07:10:57;97330.38;;;12.00;100.00
11314;BME280;5712;48.858;9.206;2023-03-13T07:13:24;97339.00;;;12.02;100.00
11314;BME280;5712;48.858;9.206;2023-03-13T07:15:52;97346.56;;;12.06;100.00
11314;BME280;5712;48.858;9.206;2023-03-13T07:18:19;97343.50;;;12.11;100.00
11314;BME280;5712;48.858;9.206;2023-03-13T07:20:51;97343.63;;;12.09;100.00
11314;BME280;5712;48.858;9.206;2023-03-13T07:23:18;97352.03;;;12.14;100.00
11314;BME280;5712;48.858;9.206;2023-03-13T07:25:51;97347.13;;;12.10;100.00
11314;BME280;5712;48.858;9.206;2023-03-13T07:28:18;97341.84;;;12.10;100.00
11314;BME280;5712;48.858;9.206;2023-03-13T07:30:44;97347.13;;;12.10;100.00
11314;BME280;5712;48.858;9.206;2023-03-13T07:33:12;97333.47;;;12.14;100.00
11314;BME280;5712;48.858;9.206;2023-03-13T07:35:39;97334.06;;;12.18;100.00
11314;BME280;5712;48.858;9.206;2023-03-13T07:38:05;97327.91;;;12.17;100.00
11314;BME280;5712;48.858;9.206;2023-03-13T07:40:32;97325.41;;;12.16;100.00
11314;BME280;5712;48.858;9.206;2023-03-13T07:42:58;97320.13;;;12.16;100.00
11314;BME280;5712;48.858;9.206;2023-03-13T07:45:24;97310.22;;;12.18;100.00
11314;BME280;5712;48.858;9.206;2023-03-13T07:47:51;97320.69;;;12.19;100.00
11314;BME280;5712;48.858;9.206;2023-03-13T07:50:19;97313.44;;;12.31;100.00
11314;BME280;5712;48.858;9.206;2023-03-13T07:52:45;97309.28;;;12.38;100.00
11314;BME280;5712;48.858;9.206;2023-03-13T07:55:12;97314.03;;;12.44;100.00
11314;BME280;5712;48.858;9.206;2023-03-13T07:57:41;97305.63;;;12.39;100.00
11314;BME280;5712;48.858;9.206;2023-03-13T08:00:09;97292.81;;;12.44;100.00
11314;BME280;5712;48.858;9.206;2023-03-13T08:02:40;97296.56;;;12.41;100.00
11314;BME280;5712;48.858;9.206;2023-03-13T08:05:07;97300.91;;;12.52;100.00
11314;BME280;5712;48.858;9.206;2023-03-13T08:07:35;97283.06;;;12.63;99.83
11314;BME280;5712;48.858;9.206;2023-03-13T08:10:02;97298.44;;;12.69;99.34
11314;BME280;5712;48.858;9.206;2023-03-13T08:12:28;97291.03;;;12.73;99.42
11314;BME280;5712;48.858;9.206;2023-03-13T08:14:55;97272.47;;;12.92;98.26
11314;BME280;5712;48.858;9.206;2023-03-13T08:17:21;97259.34;;;12.90;97.60
11314;BME280;5712;48.858;9.206;2023-03-13T08:19:48;97247.78;;;13.01;96.33
11314;BME280;5712;48.858;9.206;2023-03-13T08:22:14;97242.06;;;13.05;97.14
11314;BME280;5712;48.858;9.206;2023-03-13T08:24:42;97249.00;;;13.16;96.64
11314;BME280;5712;48.858;9.206;2023-03-13T08:27:08;97255.41;;;13.23;96.49
11314;BME280;5712;48.858;9.206;2023-03-13T08:29:35;97251.50;;;13.27;94.55
11314;BME280;5712;48.858;9.206;2023-03-13T08:32:02;97250.91;;;13.33;95.34
11314;BME280;5712;48.858;9.206;2023-03-13T08:34:29;97259.66;;;13.43;93.46
11314;BME280;5712;48.858;9.206;2023-03-13T08:36:55;97248.88;;;13.54;93.50
11314;BME280;5712;48.858;9.206;2023-03-13T08:39:22;97249.97;;;13.61;92.60
11314;BME280;5712;48.858;9.206;2023-03-13T08:41:50;97252.22;;;13.65;91.87
11314;BME280;5712;48.858;9.206;2023-03-13T08:44:18;97247.97;;;13.72;91.52
11314;BME280;5712;48.858;9.206;2023-03-13T08:46:45;97255.91;;;13.82;90.95
11314;BME280;5712;48.858;9.206;2023-03-13T08:49:13;97250.69;;;13.90;90.04
11314;BME280;5712;48.858;9.206;2023-03-13T08:51:41;97246.50;;;13.87;90.06
11314;BME280;5712;48.858;9.206;2023-03-13T08:54:08;97253.78;;;13.85;91.73
11314;BME280;5712;48.858;9.206;2023-03-13T08:56:35;97252.34;;;13.91;91.67
11314;BME280;5712;48.858;9.206;2023-03-13T08:59:04;97243.38;;;13.92;89.06
11314;BME280;5712;48.858;9.206;2023-03-13T09:01:32;97241.72;;;13.91;89.10
11314;BME280;5712;48.858;9.206;2023-03-13T09:03:59;97236.94;;;13.94;88.59
11314;BME280;5712;48.858;9.206;2023-03-13T09:06:26;97237.47;;;13.98;87.90
11314;BME280;5712;48.858;9.206;2023-03-13T09:08:55;97231.56;;;14.04;87.21
11314;BME280;5712;48.858;9.206;2023-03-13T09:11:22;97232.69;;;14.11;86.71
11314;BME280;5712;48.858;9.206;2023-03-13T09:13:49;97230.84;;;14.11;87.30
11314;BME280;5712;48.858;9.206;2023-03-13T09:16:18;97243.97;;;14.13;87.31
11314;BME280;5712;48.858;9.206;2023-03-13T09:18:45;97233.59;;;14.19;86.82
11314;BME280;5712;48.858;9.206;2023-03-13T09:21:13;97226.19;;;14.23;85.98
11314;BME280;5712;48.858;9.206;2023-03-13T09:23:41;97214.72;;;14.22;84.87
11314;BME280;5712;48.858;9.206;2023-03-13T09:26:07;97222.75;;;14.30;84.94
11314;BME280;5712;48.858;9.206;2023-03-13T09:28:34;97217.97;;;14.34;84.06
11314;BME280;5712;48.858;9.206;2023-03-13T09:31:07;97226.28;;;14.48;84.26
11314;BME280;5712;48.858;9.206;2023-03-13T09:33:36;97235.41;;;14.63;83.68
11314;BME280;5712;48.858;9.206;2023-03-13T09:36:03;97226.97;;;14.68;82.54
11314;BME280;5712;48.858;9.206;2023-03-13T09:38:30;97242.06;;;14.67;82.61
11314;BME280;5712;48.858;9.206;2023-03-13T09:41:02;97242.91;;;14.68;83.42
11314;BME280;5712;48.858;9.206;2023-03-13T09:43:36;97248.31;;;14.58;82.39
11314;BME280;5712;48.858;9.206;2023-03-13T09:46:09;97243.81;;;14.59;82.38
11314;BME280;5712;48.858;9.206;2023-03-13T09:48:42;97246.03;;;14.63;81.57
11314;BME280;5712;48.858;9.206;2023-03-13T09:51:12;97241.47;;;14.73;81.95
11314;BME280;5712;48.858;9.206;2023-03-13T09:53:43;97230.88;;;14.99;79.48
11314;BME280;5712;48.858;9.206;2023-03-13T09:56:15;97229.06;;;15.25;78.55
11314;BME280;5712;48.858;9.206;2023-03-13T09:58:48;97216.91;;;15.48;77.96
11314;BME280;5712;48.858;9.206;2023-03-13T10:01:19;97203.50;;;15.65;77.60
11314;BME280;5712;48.858;9.206;2023-03-13T10:03:55;97191.75;;;15.76;74.06
11314;BME280;5712;48.858;9.206;2023-03-13T10:06:24;97181.78;;;15.78;73.93
11314;BME280;5712;48.858;9.206;2023-03-13T10:08:53;97189.44;;;15.81;74.74
11314;BME280;5712;48.858;9.206;2023-03-13T10:11:27;97191.44;;;15.79;75.91
11314;BME280;5712;48.858;9.206;2023-03-13T10:13:58;97168.72;;;15.67;73.87
11314;BME280;5712;48.858;9.206;2023-03-13T10:16:30;97174.66;;;15.45;74.16
11314;BME280;5712;48.858;9.206;2023-03-13T10:19:09;97168.69;;;15.25;74.27
11314;BME280;5712;48.858;9.206;2023-03-13T10:21:38;97161.88;;;15.31;76.81
11314;BME280;5712;48.858;9.206;2023-03-13T10:24:13;97177.13;;;15.46;76.49
11314;BME280;5712;48.858;9.206;2023-03-13T10:26:42;97165.72;;;15.62;76.61
11314;BME280;5712;48.858;9.206;2023-03-13T10:29:19;97156.13;;;15.77;74.03
11314;BME280;5712;48.858;9.206;2023-03-13T10:31:53;97150.97;;;15.83;73.33
11314;BME280;5712;48.858;9.206;2023-03-13T10:34:23;97171.19;;;16.02;74.60
11314;BME280;5712;48.858;9.206;2023-03-13T10:36:54;97149.22;;;16.15;73.71
11314;BME280;5712;48.858;9.206;2023-03-13T10:39:24;97144.25;;;16.20;71.25
11314;BME280;5712;48.858;9.206;2023-03-13T10:41:56;97135.94;;;16.31;70.06
11314;BME280;5712;48.858;9.206;2023-03-13T10:44:29;97128.47;;;16.43;69.65
11314;BME280;5712;48.858;9.206;2023-03-13T10:46:59;97145.16;;;16.45;70.22
11314;BME280;5712;48.858;9.206;2023-03-13T10:49:29;97130.78;;;16.38;70.50
11314;BME280;5712;48.858;9.206;2023-03-13T10:51:59;97129.25;;;16.35;69.36
11314;BME280;5712;48.858;9.206;2023-03-13T10:54:28;97139.28;;;16.41;71.60
11314;BME280;5712;48.858;9.206;2023-03-13T10:57:27;97128.97;;;16.54;70.79
11314;BME280;5712;48.858;9.206;2023-03-13T10:59:54;97113.63;;;16.64;70.37
11314;BME280;5712;48.858;9.206;2023-03-13T11:02:25;97120.59;;;16.97;69.12
11314;BME280;5712;48.858;9.206;2023-03-13T11:04:54;97110.16;;;17.26;68.86
11314;BME280;5712;48.858;9.206;2023-03-13T11:07:26;97106.44;;;17.51;67.82
11314;BME280;5712;48.858;9.206;2023-03-13T11:09:58;97099.25;;;17.52;65.92
11314;BME280;5712;48.858;9.206;2023-03-13T11:12:25;97106.03;;;17.62;65.73
11314;BME280;5712;48.858;9.206;2023-03-13T11:14:56;97111.69;;;17.67;66.41
11314;BME280;5712;48.858;9.206;2023-03-13T11:17:29;97091.75;;;17.47;64.15
11314;BME280;5712;48.858;9.206;2023-03-13T11:20:07;97099.81;;;17.23;65.32
11314;BME280;5712;48.858;9.206;2023-03-13T11:22:49;97090.28;;;17.29;65.00
11314;BME280;5712;48.858;9.206;2023-03-13T11:25:22;97078.88;;;17.04;65.48
11314;BME280;5712;48.858;9.206;2023-03-13T11:28:06;97069.88;;;16.89;65.31
11314;BME280;5712;48.858;9.206;2023-03-13T11:30:44;97087.25;;;16.77;67.04
11314;BME280;5712;48.858;9.206;2023-03-13T11:33:24;97068.91;;;16.82;67.61
11314;BME280;5712;48.858;9.206;2023-03-13T11:35:59;97065.88;;;16.93;67.71
11314;BME280;5712;48.858;9.206;2023-03-13T11:38:32;97066.19;;;16.98;67.77
11314;BME280;5712;48.858;9.206;2023-03-13T11:41:06;97060.31;;;17.19;68.42
11314;BME280;5712;48.858;9.206;2023-03-13T11:43:44;97024.09;;;17.16;64.53
11314;BME280;5712;48.858;9.206;2023-03-13T11:46:22;97005.78;;;17.05;63.61
11314;BME280;5712;48.858;9.206;2023-03-13T11:52:11;97021.34;;;16.86;66.44
11314;BME280;5712;48.858;9.206;2023-03-13T11:54:52;97002.09;;;17.06;65.81
11314;BME280;5712;48.858;9.206;2023-03-13T11:57:24;96996.66;;;17.30;65.10
11314;BME280;5712;48.858;9.206;2023-03-13T12:00:06;96993.78;;;17.40;64.58
11314;BME280;5712;48.858;9.206;2023-03-13T12:02:44;96987.69;;;17.54;65.91
11314;BME280;5712;48.858;9.206;2023-03-13T12:05:16;96965.50;;;17.76;63.28
11314;BME280;5712;48.858;9.206;2023-03-13T12:07:48;96966.88;;;17.94;63.35
11314;BME280;5712;48.858;9.206;2023-03-13T12:10:18;96963.19;;;17.95;63.43
11314;BME280;5712;48.858;9.206;2023-03-13T12:12:50;96957.84;;;17.95;62.56
11314;BME280;5712;48.858;9.206;2023-03-13T12:15:21;96951.88;;;18.08;62.64
11314;BME280;5712;48.858;9.206;2023-03-13T12:17:51;96933.09;;;18.16;60.87
11314;BME280;5712;48.858;9.206;2023-03-13T12:20:23;96920.34;;;18.18;61.69
11314;BME280;5712;48.858;9.206;2023-03-13T12:22:56;96912.06;;;18.27;60.73
11314;BME280;5712;48.858;9.206;2023-03-13T12:25:27;96899.81;;;18.18;60.16
11314;BME280;5712;48.858;9.206;2023-03-13T12:28:02;96886.63;;;18.17;60.00
11314;BME280;5712;48.858;9.206;2023-03-13T12:30:36;96881.63;;;18.28;60.60
11314;BME280;5712;48.858;9.206;2023-03-13T12:33:15;96870.50;;;18.39;59.45
11314;BME280;5712;48.858;9.206;2023-03-13T12:35:48;96873.00;;;18.41;58.94
11314;BME280;5712;48.858;9.206;2023-03-13T12:38:23;96856.56;;;18.44;58.23
11314;BME280;5712;48.858;9.206;2023-03-13T12:41:00;96848.38;;;18.45;58.42
11314;BME280;5712;48.858;9.206;2023-03-13T12:43:31;96833.22;;;18.52;58.23
11314;BME280;5712;48.858;9.206;2023-03-13T12:46:12;96842.34;;;18.58;58.72
11314;BME280;5712;48.858;9.206;2023-03-13T12:48:54;96828.97;;;18.58;59.14
11314;BME280;5712;48.858;9.206;2023-03-13T12:51:33;96814.38;;;18.60;58.23
11314;BME280;5712;48.858;9.206;2023-03-13T12:54:33;96803.06;;;18.44;58.28
11314;BME280;5712;48.858;9.206;2023-03-13T12:59:53;96791.41;;;18.66;58.89
11314;BME280;5712;48.858;9.206;2023-03-13T13:02:24;96783.53;;;18.79;58.81
11314;BME280;5712;48.858;9.206;2023-03-13T13:04:53;96776.66;;;18.91;58.41
11314;BME280;5712;48.858;9.206;2023-03-13T13:07:24;96765.38;;;18.95;57.15
11314;BME280;5712;48.858;9.206;2023-03-13T13:10:02;96776.09;;;18.95;58.42
11314;BME280;5712;48.858;9.206;2023-03-13T13:12:29;96750.16;;;18.96;56.78
11314;BME280;5712;48.858;9.206;2023-03-13T13:14:59;96749.38;;;19.02;56.69
11314;BME280;5712;48.858;9.206;2023-03-13T13:17:59;96741.66;;;19.13;57.32
11314;BME280;5712;48.858;9.206;2023-03-13T13:20:39;96723.22;;;19.25;55.75
11314;BME280;5712;48.858;9.206;2023-03-13T13:23:24;96708.94;;;19.39;54.81
11314;BME280;5712;48.858;9.206;2023-03-13T13:25:53;96699.63;;;19.35;54.61